sensor_id;sensor_type;location;lat;lon;timestamp;pressure;altitude;pressure_sealevel;temperature;humidity
48530;BME280;34927;37.302;-121.982;2023-03-18T00:00:17;100888.0;;;24.01;29.03
48530;BME280;34927;37.302;-121.982;2023-03-18T00:01:21;100890.0;;;23.99;29.24
48530;BME280;34927;37.302;-121.982;2023-03-18T00:02:27;100891.0;;;24.07;29.30
48530;BME280;34927;37.302;-121.982;2023-03-18T00:03:33;100893.0;;;24.15;29.18
48530;BME280;34927;37.302;-121.982;2023-03-18T00:04:37;100893.0;;;24.21;29.18
48530;BME280;34927;37.302;-121.982;2023-03-18T00:05:42;100897.0;;;24.16;29.05
48530;BME280;34927;37.302;-121.982;2023-03-18T00:06:47;100896.0;;;24.24;28.87
48530;BME280;34927;37.302;-121.982;2023-03-18T00:07:52;100890.0;;;24.30;28.87
48530;BME280;34927;37.302;-121.982;2023-03-18T00:08:56;100892.0;;;24.24;28.83
48530;BME280;34927;37.302;-121.982;2023-03-18T00:10:02;100892.0;;;24.04;29.11
48530;BME280;34927;37.302;-121.982;2023-03-18T00:11:08;100891.0;;;24.10;28.94
48530;BME280;34927;37.302;-121.982;2023-03-18T00:12:11;100891.0;;;24.17;29.13
48530;BME280;34927;37.302;-121.982;2023-03-18T00:13:16;100892.0;;;24.15;29.27
48530;BME280;34927;37.302;-121.982;2023-03-18T00:14:22;100891.0;;;24.14;29.36
48530;BME280;34927;37.302;-121.982;2023-03-18T00:15:27;100890.0;;;24.25;29.14
48530;BME280;34927;37.302;-121.982;2023-03-18T00:16:31;100885.0;;;24.09;29.09
48530;BME280;34927;37.302;-121.982;2023-03-18T00:17:37;100884.0;;;24.13;29.16
48530;BME280;34927;37.302;-121.982;2023-03-18T00:18:42;100886.0;;;24.08;28.94
48530;BME280;34927;37.302;-121.982;2023-03-18T00:19:47;100886.0;;;24.12;29.10
48530;BME280;34927;37.302;-121.982;2023-03-18T00:20:52;100887.0;;;24.03;29.14
48530;BME280;34927;37.302;-121.982;2023-03-18T00:21:56;100887.0;;;24.12;29.13
48530;BME280;34927;37.302;-121.982;2023-03-18T00:23:01;100886.0;;;24.06;29.12
48530;BME280;34927;37.302;-121.982;2023-03-18T00:24:07;100883.0;;;24.09;28.83
48530;BME280;34927;37.302;-121.982;2023-03-18T00:25:13;100883.0;;;24.13;29.02
48530;BME280;34927;37.302;-121.982;2023-03-18T00:26:17;100881.0;;;24.19;28.87
48530;BME280;34927;37.302;-121.982;2023-03-18T00:27:21;100883.0;;;24.23;28.78
48530;BME280;34927;37.302;-121.982;2023-03-18T00:28:27;100882.0;;;24.16;28.96
48530;BME280;34927;37.302;-121.982;2023-03-18T00:29:31;100882.0;;;24.17;28.80
48530;BME280;34927;37.302;-121.982;2023-03-18T00:30:38;100883.0;;;24.08;28.72
48530;BME280;34927;37.302;-121.982;2023-03-18T00:31:42;100883.0;;;24.06;28.79
48530;BME280;34927;37.302;-121.982;2023-03-18T00:32:47;100885.0;;;24.05;28.88
48530;BME280;34927;37.302;-121.982;2023-03-18T00:33:52;100885.0;;;24.07;28.90
48530;BME280;34927;37.302;-121.982;2023-03-18T00:34:57;100887.0;;;24.09;28.89
48530;BME280;34927;37.302;-121.982;2023-03-18T00:36:02;100885.0;;;24.00;29.07
48530;BME280;34927;37.302;-121.982;2023-03-18T00:37:06;100886.0;;;24.05;29.08
48530;BME280;34927;37.302;-121.982;2023-03-18T00:38:13;100883.0;;;23.98;29.17
48530;BME280;34927;37.302;-121.982;2023-03-18T00:39:16;100885.0;;;23.98;29.07
48530;BME280;34927;37.302;-121.982;2023-03-18T00:40:22;100886.0;;;23.88;29.32
48530;BME280;34927;37.302;-121.982;2023-03-18T00:41:29;100887.0;;;23.94;29.35
48530;BME280;34927;37.302;-121.982;2023-03-18T00:42:33;100888.0;;;23.99;29.34
48530;BME280;34927;37.302;-121.982;2023-03-18T00:43:38;100889.0;;;24.08;29.13
48530;BME280;34927;37.302;-121.982;2023-03-18T00:44:42;100887.0;;;23.99;29.25
48530;BME280;34927;37.302;-121.982;2023-03-18T00:45:47;100885.0;;;24.02;29.05
48530;BME280;34927;37.302;-121.982;2023-03-18T00:46:51;100883.0;;;23.90;29.36
48530;BME280;34927;37.302;-121.982;2023-03-18T00:47:57;100882.0;;;24.02;29.25
48530;BME280;34927;37.302;-121.982;2023-03-18T00:49:03;100881.0;;;23.95;29.51
48530;BME280;34927;37.302;-121.982;2023-03-18T00:50:08;100880.0;;;23.98;29.52
48530;BME280;34927;37.302;-121.982;2023-03-18T00:51:12;100878.0;;;23.98;29.63
48530;BME280;34927;37.302;-121.982;2023-03-18T00:52:17;100881.0;;;24.01;29.72
48530;BME280;34927;37.302;-121.982;2023-03-18T00:53:21;100879.0;;;24.08;29.83
48530;BME280;34927;37.302;-121.982;2023-03-18T00:54:27;100878.0;;;23.99;30.13
48530;BME280;34927;37.302;-121.982;2023-03-18T00:55:32;100880.0;;;23.96;30.13
48530;BME280;34927;37.302;-121.982;2023-03-18T00:56:38;100879.0;;;24.11;30.22
48530;BME280;34927;37.302;-121.982;2023-03-18T00:57:41;100881.0;;;24.06;30.41
48530;BME280;34927;37.302;-121.982;2023-03-18T00:58:49;100882.0;;;24.00;30.42
48530;BME280;34927;37.302;-121.982;2023-03-18T00:59:51;100886.0;;;24.10;30.38
48530;BME280;34927;37.302;-121.982;2023-03-18T01:00:57;100886.0;;;24.10;30.48
48530;BME280;34927;37.302;-121.982;2023-03-18T01:02:02;100885.0;;;24.01;30.62
48530;BME280;34927;37.302;-121.982;2023-03-18T01:03:07;100887.0;;;24.05;30.55
48530;BME280;34927;37.302;-121.982;2023-03-18T01:04:11;100887.0;;;24.00;30.63
48530;BME280;34927;37.302;-121.982;2023-03-18T01:05:17;100887.0;;;24.02;30.70
48530;BME280;34927;37.302;-121.982;2023-03-18T01:06:24;100889.0;;;24.02;30.85
48530;BME280;34927;37.302;-121.982;2023-03-18T01:07:26;100892.0;;;24.04;30.78
48530;BME280;34927;37.302;-121.982;2023-03-18T01:08:32;100893.0;;;24.04;30.71
48530;BME280;34927;37.302;-121.982;2023-03-18T01:09:36;100895.0;;;24.14;30.70
48530;BME280;34927;37.302;-121.982;2023-03-18T01:10:42;100895.0;;;24.05;30.84
48530;BME280;34927;37.302;-121.982;2023-03-18T01:11:46;100895.0;;;23.88;31.10
48530;BME280;34927;37.302;-121.982;2023-03-18T01:12:52;100896.0;;;23.94;30.99
48530;BME280;34927;37.302;-121.982;2023-03-18T01:14:02;100899.0;;;23.90;31.14
48530;BME280;34927;37.302;-121.982;2023-03-18T01:15:09;100899.0;;;24.01;30.91
48530;BME280;34927;37.302;-121.982;2023-03-18T01:16:17;100901.0;;;24.14;30.78
48530;BME280;34927;37.302;-121.982;2023-03-18T01:17:21;100901.0;;;24.00;30.94
48530;BME280;34927;37.302;-121.982;2023-03-18T01:18:27;100903.0;;;23.98;30.97
48530;BME280;34927;37.302;-121.982;2023-03-18T01:19:32;100902.0;;;23.97;30.89
48530;BME280;34927;37.302;-121.982;2023-03-18T01:20:38;100905.0;;;23.94;30.97
48530;BME280;34927;37.302;-121.982;2023-03-18T01:21:41;100909.0;;;23.75;31.33
48530;BME280;34927;37.302;-121.982;2023-03-18T01:22:46;100912.0;;;23.88;31.19
48530;BME280;34927;37.302;-121.982;2023-03-18T01:23:52;100913.0;;;23.86;31.25
48530;BME280;34927;37.302;-121.982;2023-03-18T01:24:56;100916.0;;;23.92;31.16
48530;BME280;34927;37.302;-121.982;2023-03-18T01:26:02;100921.0;;;23.82;31.31
48530;BME280;34927;37.302;-121.982;2023-03-18T01:27:06;100918.0;;;23.76;31.44
48530;BME280;34927;37.302;-121.982;2023-03-18T01:28:12;100922.0;;;23.85;31.42
48530;BME280;34927;37.302;-121.982;2023-03-18T01:29:16;100921.0;;;23.87;31.36
48530;BME280;34927;37.302;-121.982;2023-03-18T01:30:22;100926.0;;;23.90;31.19
48530;BME280;34927;37.302;-121.982;2023-03-18T01:31:27;100927.0;;;23.97;31.15
48530;BME280;34927;37.302;-121.982;2023-03-18T01:32:32;100925.0;;;23.87;31.22
48530;BME280;34927;37.302;-121.982;2023-03-18T01:33:37;100926.0;;;23.83;31.19
48530;BME280;34927;37.302;-121.982;2023-03-18T01:34:41;100927.0;;;23.80;31.16
48530;BME280;34927;37.302;-121.982;2023-03-18T01:35:53;100928.0;;;23.77;31.20
48530;BME280;34927;37.302;-121.982;2023-03-18T01:36:57;100927.0;;;23.75;31.18
48530;BME280;34927;37.302;-121.982;2023-03-18T01:38:02;100927.0;;;23.76;31.01
48530;BME280;34927;37.302;-121.982;2023-03-18T01:39:07;100929.0;;;23.63;31.28
48530;BME280;34927;37.302;-121.982;2023-03-18T01:40:14;100927.0;;;23.72;31.12
48530;BME280;34927;37.302;-121.982;2023-03-18T01:41:16;100932.0;;;23.53;31.37
48530;BME280;34927;37.302;-121.982;2023-03-18T01:42:21;100934.0;;;23.47;31.50
48530;BME280;34927;37.302;-121.982;2023-03-18T01:43:29;100936.0;;;23.47;31.47
48530;BME280;34927;37.302;-121.982;2023-03-18T01:44:32;100936.0;;;23.58;31.39
48530;BME280;34927;37.302;-121.982;2023-03-18T01:45:37;100940.0;;;23.55;31.39
48530;BME280;34927;37.302;-121.982;2023-03-18T01:46:43;100941.0;;;23.61;31.25
48530;BME280;34927;37.302;-121.982;2023-03-18T01:47:47;100944.0;;;23.57;31.36
48530;BME280;34927;37.302;-121.982;2023-03-18T01:48:51;100943.0;;;23.70;31.16
48530;BME280;34927;37.302;-121.982;2023-03-18T01:49:56;100948.0;;;23.51;31.34
48530;BME280;34927;37.302;-121.982;2023-03-18T01:51:05;100950.0;;;23.41;31.49
48530;BME280;34927;37.302;-121.982;2023-03-18T01:52:16;100951.0;;;23.32;31.75
48530;BME280;34927;37.302;-121.982;2023-03-18T01:53:30;100953.0;;;23.37;31.70
48530;BME280;34927;37.302;-121.982;2023-03-18T01:54:40;100952.0;;;23.43;31.60
48530;BME280;34927;37.302;-121.982;2023-03-18T01:55:52;100955.0;;;23.45;31.64
48530;BME280;34927;37.302;-121.982;2023-03-18T01:56:57;100953.0;;;23.48;31.61
48530;BME280;34927;37.302;-121.982;2023-03-18T01:58:05;100957.0;;;23.49;31.73
48530;BME280;34927;37.302;-121.982;2023-03-18T01:59:12;100960.0;;;23.50;31.80
48530;BME280;34927;37.302;-121.982;2023-03-18T02:00:18;100958.0;;;23.56;31.71
48530;BME280;34927;37.302;-121.982;2023-03-18T02:01:25;100963.0;;;23.48;31.84
48530;BME280;34927;37.302;-121.982;2023-03-18T02:02:32;100964.0;;;23.48;31.88
48530;BME280;34927;37.302;-121.982;2023-03-18T02:03:38;100964.0;;;23.49;31.90
48530;BME280;34927;37.302;-121.982;2023-03-18T02:04:44;100963.0;;;23.39;32.01
48530;BME280;34927;37.302;-121.982;2023-03-18T02:05:58;100964.0;;;23.46;32.03
48530;BME280;34927;37.302;-121.982;2023-03-18T02:07:02;100966.0;;;23.43;32.02
48530;BME280;34927;37.302;-121.982;2023-03-18T02:08:06;100964.0;;;23.51;32.02
48530;BME280;34927;37.302;-121.982;2023-03-18T02:09:12;100963.0;;;23.48;32.03
48530;BME280;34927;37.302;-121.982;2023-03-18T02:11:22;100966.0;;;23.45;32.13
48530;BME280;34927;37.302;-121.982;2023-03-18T02:12:29;100966.0;;;23.38;32.20
48530;BME280;34927;37.302;-121.982;2023-03-18T02:13:40;100967.0;;;23.51;32.06
48530;BME280;34927;37.302;-121.982;2023-03-18T02:14:47;100966.0;;;23.52;32.02
48530;BME280;34927;37.302;-121.982;2023-03-18T02:15:55;100967.0;;;23.45;32.18
48530;BME280;34927;37.302;-121.982;2023-03-18T02:17:05;100968.0;;;23.41;32.29
48530;BME280;34927;37.302;-121.982;2023-03-18T02:19:38;100969.0;;;23.43;32.36
48530;BME280;34927;37.302;-121.982;2023-03-18T02:20:59;100968.0;;;23.43;32.36
48530;BME280;34927;37.302;-121.982;2023-03-18T02:22:13;100970.0;;;23.38;32.47
48530;BME280;34927;37.302;-121.982;2023-03-18T02:23:28;100969.0;;;23.44;32.41
48530;BME280;34927;37.302;-121.982;2023-03-18T02:24:43;100972.0;;;23.41;32.46
48530;BME280;34927;37.302;-121.982;2023-03-18T02:25:59;100973.0;;;23.42;32.66
48530;BME280;34927;37.302;-121.982;2023-03-18T02:27:15;100975.0;;;23.46;32.78
48530;BME280;34927;37.302;-121.982;2023-03-18T02:28:23;100978.0;;;23.45;33.12
48530;BME280;34927;37.302;-121.982;2023-03-18T02:29:30;100980.0;;;23.42;33.03
48530;BME280;34927;37.302;-121.982;2023-03-18T02:30:40;100984.0;;;23.47;32.70
48530;BME280;34927;37.302;-121.982;2023-03-18T02:31:47;100984.0;;;23.51;33.19
48530;BME280;34927;37.302;-121.982;2023-03-18T02:32:53;100984.0;;;23.52;33.49
48530;BME280;34927;37.302;-121.982;2023-03-18T02:34:02;100982.0;;;23.63;34.31
48530;BME280;34927;37.302;-121.982;2023-03-18T02:35:09;100981.0;;;23.66;34.65
48530;BME280;34927;37.302;-121.982;2023-03-18T02:36:16;100979.0;;;23.69;34.85
48530;BME280;34927;37.302;-121.982;2023-03-18T02:37:22;100979.0;;;23.71;35.11
48530;BME280;34927;37.302;-121.982;2023-03-18T02:38:26;100981.0;;;23.67;35.50
48530;BME280;34927;37.302;-121.982;2023-03-18T02:39:32;100980.0;;;23.72;35.59
48530;BME280;34927;37.302;-121.982;2023-03-18T02:40:40;100983.0;;;23.68;35.79
48530;BME280;34927;37.302;-121.982;2023-03-18T02:41:46;100985.0;;;23.64;35.72
48530;BME280;34927;37.302;-121.982;2023-03-18T02:42:52;100986.0;;;23.64;35.97
48530;BME280;34927;37.302;-121.982;2023-03-18T02:43:57;100989.0;;;23.65;36.26
48530;BME280;34927;37.302;-121.982;2023-03-18T02:45:02;100990.0;;;23.64;36.04
48530;BME280;34927;37.302;-121.982;2023-03-18T02:46:19;100990.0;;;23.57;34.86
48530;BME280;34927;37.302;-121.982;2023-03-18T02:47:28;100991.0;;;23.49;35.00
48530;BME280;34927;37.302;-121.982;2023-03-18T02:48:35;100993.0;;;23.52;34.93
48530;BME280;34927;37.302;-121.982;2023-03-18T02:49:41;100993.0;;;23.49;35.29
48530;BME280;34927;37.302;-121.982;2023-03-18T02:50:47;100995.0;;;23.52;35.37
48530;BME280;34927;37.302;-121.982;2023-03-18T02:51:51;100995.0;;;23.45;35.54
48530;BME280;34927;37.302;-121.982;2023-03-18T02:52:58;100998.0;;;23.40;35.52
48530;BME280;34927;37.302;-121.982;2023-03-18T02:54:04;101001.0;;;23.30;35.85
48530;BME280;34927;37.302;-121.982;2023-03-18T02:55:08;100999.0;;;23.39;35.50
48530;BME280;34927;37.302;-121.982;2023-03-18T02:56:12;101001.0;;;23.46;35.49
48530;BME280;34927;37.302;-121.982;2023-03-18T02:57:17;101003.0;;;23.46;35.42
48530;BME280;34927;37.302;-121.982;2023-03-18T02:58:22;101003.0;;;23.49;35.54
48530;BME280;34927;37.302;-121.982;2023-03-18T02:59:27;101006.0;;;23.30;35.75
48530;BME280;34927;37.302;-121.982;2023-03-18T03:00:32;101008.0;;;23.52;35.29
48530;BME280;34927;37.302;-121.982;2023-03-18T03:01:38;101007.0;;;23.56;35.02
48530;BME280;34927;37.302;-121.982;2023-03-18T03:02:42;101008.0;;;23.45;35.09
48530;BME280;34927;37.302;-121.982;2023-03-18T03:03:46;101008.0;;;23.49;34.96
48530;BME280;34927;37.302;-121.982;2023-03-18T03:04:51;101008.0;;;23.47;35.02
48530;BME280;34927;37.302;-121.982;2023-03-18T03:05:56;101010.0;;;23.58;34.93
48530;BME280;34927;37.302;-121.982;2023-03-18T03:07:03;101008.0;;;23.48;35.10
48530;BME280;34927;37.302;-121.982;2023-03-18T03:08:07;101010.0;;;23.29;35.55
48530;BME280;34927;37.302;-121.982;2023-03-18T03:09:14;101011.0;;;23.33;35.28
48530;BME280;34927;37.302;-121.982;2023-03-18T03:10:17;101011.0;;;23.31;35.39
48530;BME280;34927;37.302;-121.982;2023-03-18T03:11:23;101013.0;;;23.26;35.39
48530;BME280;34927;37.302;-121.982;2023-03-18T03:12:26;101015.0;;;23.19;35.84
48530;BME280;34927;37.302;-121.982;2023-03-18T03:13:32;101019.0;;;23.16;35.70
48530;BME280;34927;37.302;-121.982;2023-03-18T03:14:37;101021.0;;;23.24;35.71
48530;BME280;34927;37.302;-121.982;2023-03-18T03:15:42;101020.0;;;23.28;35.31
48530;BME280;34927;37.302;-121.982;2023-03-18T03:16:47;101025.0;;;23.20;35.65
48530;BME280;34927;37.302;-121.982;2023-03-18T03:17:52;101024.0;;;23.20;35.73
48530;BME280;34927;37.302;-121.982;2023-03-18T03:18:57;101024.0;;;23.07;35.84
48530;BME280;34927;37.302;-121.982;2023-03-18T03:20:03;101026.0;;;23.14;35.65
48530;BME280;34927;37.302;-121.982;2023-03-18T03:21:07;101029.0;;;23.07;35.87
48530;BME280;34927;37.302;-121.982;2023-03-18T03:22:12;101031.0;;;23.16;35.64
48530;BME280;34927;37.302;-121.982;2023-03-18T03:23:17;101031.0;;;23.11;35.64
48530;BME280;34927;37.302;-121.982;2023-03-18T03:24:22;101034.0;;;23.18;35.38
48530;BME280;34927;37.302;-121.982;2023-03-18T03:25:27;101035.0;;;23.16;35.60
48530;BME280;34927;37.302;-121.982;2023-03-18T03:26:32;101034.0;;;23.21;35.38
48530;BME280;34927;37.302;-121.982;2023-03-18T03:27:37;101036.0;;;23.04;35.62
48530;BME280;34927;37.302;-121.982;2023-03-18T03:28:42;101036.0;;;23.10;35.46
48530;BME280;34927;37.302;-121.982;2023-03-18T03:29:46;101035.0;;;23.07;35.60
48530;BME280;34927;37.302;-121.982;2023-03-18T03:30:52;101037.0;;;23.01;35.70
48530;BME280;34927;37.302;-121.982;2023-03-18T03:31:57;101037.0;;;23.00;35.61
48530;BME280;34927;37.302;-121.982;2023-03-18T03:33:02;101039.0;;;23.02;35.62
48530;BME280;34927;37.302;-121.982;2023-03-18T03:34:08;101040.0;;;23.05;35.64
48530;BME280;34927;37.302;-121.982;2023-03-18T03:35:14;101041.0;;;22.97;35.70
48530;BME280;34927;37.302;-121.982;2023-03-18T03:36:17;101041.0;;;23.06;35.53
48530;BME280;34927;37.302;-121.982;2023-03-18T03:37:22;101043.0;;;23.03;35.63
48530;BME280;34927;37.302;-121.982;2023-03-18T03:38:27;101047.0;;;23.06;35.57
48530;BME280;34927;37.302;-121.982;2023-03-18T03:39:31;101047.0;;;23.06;35.41
48530;BME280;34927;37.302;-121.982;2023-03-18T03:40:37;101048.0;;;23.07;35.60
48530;BME280;34927;37.302;-121.982;2023-03-18T03:41:42;101051.0;;;23.12;35.46
48530;BME280;34927;37.302;-121.982;2023-03-18T03:42:48;101052.0;;;23.04;35.76
48530;BME280;34927;37.302;-121.982;2023-03-18T03:43:51;101053.0;;;23.01;35.64
48530;BME280;34927;37.302;-121.982;2023-03-18T03:44:56;101054.0;;;22.92;35.72
48530;BME280;34927;37.302;-121.982;2023-03-18T03:46:02;101056.0;;;23.00;35.68
48530;BME280;34927;37.302;-121.982;2023-03-18T03:47:08;101055.0;;;23.11;35.37
48530;BME280;34927;37.302;-121.982;2023-03-18T03:48:12;101057.0;;;23.24;35.07
48530;BME280;34927;37.302;-121.982;2023-03-18T03:49:16;101060.0;;;23.20;35.19
48530;BME280;34927;37.302;-121.982;2023-03-18T03:50:22;101061.0;;;23.03;35.45
48530;BME280;34927;37.302;-121.982;2023-03-18T03:51:26;101061.0;;;23.11;35.24
48530;BME280;34927;37.302;-121.982;2023-03-18T03:52:32;101064.0;;;23.28;35.14
48530;BME280;34927;37.302;-121.982;2023-03-18T03:53:37;101066.0;;;23.60;34.67
48530;BME280;34927;37.302;-121.982;2023-03-18T03:54:42;101067.0;;;23.97;34.12
48530;BME280;34927;37.302;-121.982;2023-03-18T03:55:46;101065.0;;;24.31;33.65
48530;BME280;34927;37.302;-121.982;2023-03-18T03:56:52;101064.0;;;24.44;33.45
48530;BME280;34927;37.302;-121.982;2023-03-18T03:57:56;101065.0;;;24.34;33.57
48530;BME280;34927;37.302;-121.982;2023-03-18T03:59:02;101064.0;;;24.31;33.66
48530;BME280;34927;37.302;-121.982;2023-03-18T04:00:10;101066.0;;;24.11;33.88
48530;BME280;34927;37.302;-121.982;2023-03-18T04:01:16;101068.0;;;24.12;33.72
48530;BME280;34927;37.302;-121.982;2023-03-18T04:02:22;101069.0;;;24.00;33.89
48530;BME280;34927;37.302;-121.982;2023-03-18T04:03:27;101074.0;;;23.85;33.99
48530;BME280;34927;37.302;-121.982;2023-03-18T04:04:31;101074.0;;;23.80;34.17
48530;BME280;34927;37.302;-121.982;2023-03-18T04:05:38;101078.0;;;23.73;34.27
48530;BME280;34927;37.302;-121.982;2023-03-18T04:06:42;101080.0;;;23.66;34.34
48530;BME280;34927;37.302;-121.982;2023-03-18T04:07:47;101083.0;;;23.67;34.26
48530;BME280;34927;37.302;-121.982;2023-03-18T04:08:52;101084.0;;;23.60;34.55
48530;BME280;34927;37.302;-121.982;2023-03-18T04:09:57;101083.0;;;23.55;34.67
48530;BME280;34927;37.302;-121.982;2023-03-18T04:11:02;101086.0;;;23.53;34.58
48530;BME280;34927;37.302;-121.982;2023-03-18T04:50:50;65830.0;;;22.76;87.55
48530;BME280;34927;37.302;-121.982;2023-03-18T04:51:53;101130.0;;;20.77;40.32
48530;BME280;34927;37.302;-121.982;2023-03-18T04:52:58;101125.0;;;21.35;39.18
48530;BME280;34927;37.302;-121.982;2023-03-18T04:54:03;101130.0;;;22.00;37.85
48530;BME280;34927;37.302;-121.982;2023-03-18T04:55:09;101132.0;;;22.61;36.68
48530;BME280;34927;37.302;-121.982;2023-03-18T04:56:13;101132.0;;;23.08;35.69
48530;BME280;34927;37.302;-121.982;2023-03-18T04:57:18;101129.0;;;23.37;35.06
48530;BME280;34927;37.302;-121.982;2023-03-18T04:58:22;101130.0;;;23.37;34.88
48530;BME280;34927;37.302;-121.982;2023-03-18T04:59:28;101131.0;;;23.26;35.05
48530;BME280;34927;37.302;-121.982;2023-03-18T05:00:30;101135.0;;;23.22;35.19
48530;BME280;34927;37.302;-121.982;2023-03-18T05:01:32;101134.0;;;23.15;35.09
48530;BME280;34927;37.302;-121.982;2023-03-18T05:02:38;101136.0;;;23.09;35.19
48530;BME280;34927;37.302;-121.982;2023-03-18T05:03:42;101138.0;;;23.04;35.19
48530;BME280;34927;37.302;-121.982;2023-03-18T05:04:47;101139.0;;;22.94;35.20
48530;BME280;34927;37.302;-121.982;2023-03-18T05:05:53;101138.0;;;22.97;35.10
48530;BME280;34927;37.302;-121.982;2023-03-18T05:06:58;101135.0;;;22.86;35.32
48530;BME280;34927;37.302;-121.982;2023-03-18T05:08:03;101135.0;;;22.82;35.35
48530;BME280;34927;37.302;-121.982;2023-03-18T05:09:07;101130.0;;;22.75;35.50
48530;BME280;34927;37.302;-121.982;2023-03-18T05:10:13;101131.0;;;22.61;35.63
48530;BME280;34927;37.302;-121.982;2023-03-18T05:11:18;101130.0;;;22.59;35.70
48530;BME280;34927;37.302;-121.982;2023-03-18T05:12:23;101129.0;;;22.54;35.70
48530;BME280;34927;37.302;-121.982;2023-03-18T05:13:27;101128.0;;;22.64;35.47
48530;BME280;34927;37.302;-121.982;2023-03-18T05:14:32;101128.0;;;22.57;35.60
48530;BME280;34927;37.302;-121.982;2023-03-18T05:15:37;101126.0;;;22.50;35.70
48530;BME280;34927;37.302;-121.982;2023-03-18T05:16:42;101129.0;;;22.45;35.76
48530;BME280;34927;37.302;-121.982;2023-03-18T05:17:47;101128.0;;;22.68;35.53
48530;BME280;34927;37.302;-121.982;2023-03-18T05:18:52;101130.0;;;22.95;35.18
48530;BME280;34927;37.302;-121.982;2023-03-18T05:19:57;101126.0;;;23.24;34.70
48530;BME280;34927;37.302;-121.982;2023-03-18T05:21:03;101125.0;;;23.59;34.17
48530;BME280;34927;37.302;-121.982;2023-03-18T05:22:07;101121.0;;;23.89;33.68
48530;BME280;34927;37.302;-121.982;2023-03-18T05:23:12;101120.0;;;24.07;33.32
48530;BME280;34927;37.302;-121.982;2023-03-18T05:24:16;101119.0;;;24.03;33.35
48530;BME280;34927;37.302;-121.982;2023-03-18T05:25:22;101119.0;;;23.96;33.45
48530;BME280;34927;37.302;-121.982;2023-03-18T05:26:26;101117.0;;;23.81;33.72
48530;BME280;34927;37.302;-121.982;2023-03-18T05:27:31;101118.0;;;23.57;34.03
48530;BME280;34927;37.302;-121.982;2023-03-18T05:28:37;101119.0;;;23.38;34.33
48530;BME280;34927;37.302;-121.982;2023-03-18T05:29:42;101119.0;;;23.30;34.46
48530;BME280;34927;37.302;-121.982;2023-03-18T05:30:46;101118.0;;;23.24;34.47
48530;BME280;34927;37.302;-121.982;2023-03-18T05:31:51;101118.0;;;23.17;34.55
48530;BME280;34927;37.302;-121.982;2023-03-18T05:32:56;101122.0;;;23.12;34.52
48530;BME280;34927;37.302;-121.982;2023-03-18T05:34:01;101129.0;;;23.00;34.68
48530;BME280;34927;37.302;-121.982;2023-03-18T05:35:07;101131.0;;;22.98;34.69
48530;BME280;34927;37.302;-121.982;2023-03-18T05:36:11;101133.0;;;22.91;34.91
48530;BME280;34927;37.302;-121.982;2023-03-18T05:37:17;101135.0;;;22.90;34.82
48530;BME280;34927;37.302;-121.982;2023-03-18T05:38:21;101135.0;;;22.81;35.03
48530;BME280;34927;37.302;-121.982;2023-03-18T05:39:27;101137.0;;;22.81;35.04
48530;BME280;34927;37.302;-121.982;2023-03-18T05:40:32;101135.0;;;22.81;35.04
48530;BME280;34927;37.302;-121.982;2023-03-18T05:41:37;101135.0;;;22.81;35.03
48530;BME280;34927;37.302;-121.982;2023-03-18T05:42:41;101133.0;;;22.75;35.10
48530;BME280;34927;37.302;-121.982;2023-03-18T05:43:47;101133.0;;;22.72;35.22
48530;BME280;34927;37.302;-121.982;2023-03-18T05:44:52;101134.0;;;22.67;35.18
48530;BME280;34927;37.302;-121.982;2023-03-18T05:45:56;101135.0;;;22.67;35.31
48530;BME280;34927;37.302;-121.982;2023-03-18T05:47:02;101133.0;;;22.52;35.52
48530;BME280;34927;37.302;-121.982;2023-03-18T05:48:07;101134.0;;;22.56;35.42
48530;BME280;34927;37.302;-121.982;2023-03-18T05:49:11;101137.0;;;22.45;35.63
48530;BME280;34927;37.302;-121.982;2023-03-18T05:50:26;101136.0;;;22.40;35.81
48530;BME280;34927;37.302;-121.982;2023-03-18T05:51:32;101138.0;;;22.39;35.78
48530;BME280;34927;37.302;-121.982;2023-03-18T05:52:37;101135.0;;;22.42;35.74
48530;BME280;34927;37.302;-121.982;2023-03-18T05:53:41;101132.0;;;22.48;35.55
48530;BME280;34927;37.302;-121.982;2023-03-18T05:54:48;101136.0;;;22.28;36.05
48530;BME280;34927;37.302;-121.982;2023-03-18T05:55:52;101131.0;;;22.41;35.70
48530;BME280;34927;37.302;-121.982;2023-03-18T05:56:57;101132.0;;;22.36;35.80
48530;BME280;34927;37.302;-121.982;2023-03-18T05:58:02;101130.0;;;22.31;35.88
48530;BME280;34927;37.302;-121.982;2023-03-18T05:59:06;101130.0;;;22.31;35.86
48530;BME280;34927;37.302;-121.982;2023-03-18T06:00:13;101129.0;;;22.24;35.92
48530;BME280;34927;37.302;-121.982;2023-03-18T06:01:17;101129.0;;;22.25;35.90
48530;BME280;34927;37.302;-121.982;2023-03-18T06:02:21;101127.0;;;22.24;36.01
48530;BME280;34927;37.302;-121.982;2023-03-18T06:03:27;101126.0;;;22.20;36.08
48530;BME280;34927;37.302;-121.982;2023-03-18T06:04:32;101127.0;;;22.20;36.04
48530;BME280;34927;37.302;-121.982;2023-03-18T06:05:37;101125.0;;;22.24;35.80
48530;BME280;34927;37.302;-121.982;2023-03-18T06:06:42;101121.0;;;22.22;35.90
48530;BME280;34927;37.302;-121.982;2023-03-18T06:07:47;101120.0;;;22.19;35.98
48530;BME280;34927;37.302;-121.982;2023-03-18T06:08:51;101119.0;;;22.24;35.95
48530;BME280;34927;37.302;-121.982;2023-03-18T06:09:57;101118.0;;;22.25;35.83
48530;BME280;34927;37.302;-121.982;2023-03-18T06:11:01;101119.0;;;22.21;35.89
48530;BME280;34927;37.302;-121.982;2023-03-18T06:12:07;101115.0;;;22.06;36.29
48530;BME280;34927;37.302;-121.982;2023-03-18T06:13:11;101115.0;;;22.04;36.37
48530;BME280;34927;37.302;-121.982;2023-03-18T06:14:16;101113.0;;;22.06;36.23
48530;BME280;34927;37.302;-121.982;2023-03-18T06:15:23;101111.0;;;22.04;36.26